Chalfant, California
Current Conditions -  °F | °C
As of 6:56 AM on Monday 24 Nov 2014 (Local Time) from KBIH Reporting Station
Clear Clear  
Wind Chill: 27°   Ceiling: Unl
Heat Index: 27°   Visibility: 10mi
Dew Point:   Wind: 0mph
Humidity: 39%   Direction: NA
Pressure: 30.38"   Gusts: NA
Location:  37.4772°N, 118.401°W
Report Text: KBIH 241456Z AUTO 00000KT 10SM CLR M03/M15 A3038 RMK AO2 SLP285 T10281150 53020
Loading
Personal Weather Stations






























Interactive Weather Map New forecast layout! Learn more

10-Day Weather Forecast

Advertisements
Track Severe Weather on mobile